SHT9C EGPH-EGLL
Flight info
| Callsign | SHT9C |
|---|---|
| Flight time | N/A |
| Altitude | 33000 |
| Route | GOSAM P600 FENIK L612 NAVSO DCT AKOMU DCT VAMEB DCT NUGRA |
| Aircraft | A20N/M-SDE2E3FGHIRWXY/LB1 |
Departure
| Time | 2026-04-24 16:11 |
|---|---|
| Airport | Edinburgh Airport (EGPH) |
Arrival
| Time | N/A |
|---|---|
| Airport | London Heathrow Airport (EGLL) |
| Time | Latitude | Longitude | Altitude | Speed | Heading |
|---|---|---|---|---|---|
| 2026-04-24 15:37 | 55.94920 | -3.36429 | 105 ft | 0 kts | 148° |
| 2026-04-24 15:56 | 55.94920 | -3.36430 | 106 ft | 0 kts | 148° |
| 2026-04-24 15:56 | 55.94920 | -3.36429 | 106 ft | 0 kts | 148° |
| 2026-04-24 15:57 | 55.94920 | -3.36430 | 106 ft | 0 kts | 148° |
| 2026-04-24 15:58 | 55.94920 | -3.36429 | 106 ft | 0 kts | 148° |
| 2026-04-24 15:58 | 55.94920 | -3.36430 | 106 ft | 0 kts | 148° |
| 2026-04-24 15:59 | 55.94920 | -3.36429 | 106 ft | 0 kts | 148° |
| 2026-04-24 16:01 | 55.94930 | -3.36440 | 106 ft | 2 kts | 148° |
| 2026-04-24 16:01 | 55.94943 | -3.36455 | 105 ft | 2 kts | 148° |
| 2026-04-24 16:01 | 55.94956 | -3.36468 | 105 ft | 2 kts | 166° |
| 2026-04-24 16:01 | 55.94971 | -3.36470 | 105 ft | 2 kts | 186° |
| 2026-04-24 16:02 | 55.94985 | -3.36463 | 105 ft | 2 kts | 207° |
| 2026-04-24 16:02 | 55.94997 | -3.36448 | 105 ft | 2 kts | 229° |
| 2026-04-24 16:02 | 55.95002 | -3.36436 | 105 ft | 1 kts | 240° |
| 2026-04-24 16:02 | 55.95005 | -3.36429 | 105 ft | 0 kts | 240° |
| 2026-04-24 16:05 | 55.94993 | -3.36465 | 105 ft | 5 kts | 239° |
| 2026-04-24 16:05 | 55.94957 | -3.36568 | 105 ft | 13 kts | 239° |
| 2026-04-24 16:06 | 55.94907 | -3.36813 | 104 ft | 10 kts | 311° |
| 2026-04-24 16:06 | 55.94912 | -3.36932 | 103 ft | 11 kts | 243° |
| 2026-04-24 16:06 | 55.94820 | -3.37212 | 102 ft | 14 kts | 238° |
| 2026-04-24 16:07 | 55.94766 | -3.37367 | 102 ft | 15 kts | 239° |
| 2026-04-24 16:07 | 55.94711 | -3.37529 | 102 ft | 15 kts | 239° |
| 2026-04-24 16:07 | 55.94602 | -3.37852 | 104 ft | 14 kts | 238° |
| 2026-04-24 16:08 | 55.94548 | -3.38009 | 106 ft | 14 kts | 239° |
| 2026-04-24 16:08 | 55.94447 | -3.38308 | 110 ft | 13 kts | 239° |
| 2026-04-24 16:09 | 55.94354 | -3.38583 | 113 ft | 12 kts | 239° |
| 2026-04-24 16:09 | 55.94309 | -3.38716 | 114 ft | 12 kts | 239° |
| 2026-04-24 16:09 | 55.94285 | -3.38851 | 115 ft | 11 kts | 296° |
| 2026-04-24 16:09 | 55.94353 | -3.38937 | 116 ft | 12 kts | 330° |
| 2026-04-24 16:10 | 55.94768 | -3.37931 | 105 ft | 110 kts | 59° |
| 2026-04-24 16:11 | 55.95833 | -3.34821 | 775 ft | 157 kts | 54° |
| 2026-04-24 16:11 | 55.96560 | -3.33364 | 1369 ft | 163 kts | 43° |
| 2026-04-24 16:11 | 55.97408 | -3.31996 | 1983 ft | 168 kts | 40° |
| 2026-04-24 16:12 | 55.99309 | -3.29029 | 2908 ft | 201 kts | 37° |
| 2026-04-24 16:12 | 56.00635 | -3.28072 | 3269 ft | 220 kts | 359° |
| 2026-04-24 16:12 | 56.03159 | -3.31302 | 4194 ft | 257 kts | 288° |
| 2026-04-24 16:13 | 56.03257 | -3.34497 | 4953 ft | 266 kts | 260° |
| 2026-04-24 16:13 | 56.02294 | -3.40883 | 6791 ft | 270 kts | 255° |
| 2026-04-24 16:14 | 56.01287 | -3.47347 | 8466 ft | 278 kts | 258° |
| 2026-04-24 16:14 | 56.00825 | -3.50689 | 9296 ft | 282 kts | 258° |
| 2026-04-24 16:14 | 55.99834 | -3.57497 | 10855 ft | 291 kts | 258° |
| 2026-04-24 16:15 | 55.99428 | -3.59840 | 11132 ft | 304 kts | 249° |
| 2026-04-24 16:15 | 55.95204 | -3.64867 | 11876 ft | 356 kts | 188° |
| 2026-04-24 16:16 | 55.90115 | -3.65434 | 13072 ft | 372 kts | 184° |
| 2026-04-24 16:16 | 55.87546 | -3.65800 | 13810 ft | 375 kts | 186° |
| 2026-04-24 16:17 | 55.79708 | -3.67427 | 15887 ft | 384 kts | 188° |
| 2026-04-24 16:17 | 55.74427 | -3.68691 | 17179 ft | 390 kts | 188° |
| 2026-04-24 16:18 | 55.69014 | -3.70012 | 18448 ft | 395 kts | 188° |
| 2026-04-24 16:18 | 55.63545 | -3.71351 | 19608 ft | 402 kts | 188° |
| 2026-04-24 16:18 | 55.60793 | -3.72025 | 20153 ft | 406 kts | 188° |
| 2026-04-24 16:19 | 55.55142 | -3.73410 | 21194 ft | 414 kts | 188° |
| 2026-04-24 16:19 | 55.52282 | -3.74109 | 21708 ft | 418 kts | 188° |
| 2026-04-24 16:20 | 55.46476 | -3.75525 | 22740 ft | 425 kts | 187° |
| 2026-04-24 16:20 | 55.40606 | -3.76952 | 23753 ft | 430 kts | 187° |
| 2026-04-24 16:20 | 55.37665 | -3.77662 | 24208 ft | 433 kts | 187° |
| 2026-04-24 16:21 | 55.31669 | -3.79111 | 25055 ft | 440 kts | 187° |
| 2026-04-24 16:21 | 55.28632 | -3.79844 | 25463 ft | 442 kts | 187° |
| 2026-04-24 16:21 | 55.25595 | -3.80511 | 25859 ft | 444 kts | 183° |
| 2026-04-24 16:22 | 55.22486 | -3.80298 | 26232 ft | 446 kts | 170° |
| 2026-04-24 16:22 | 55.16722 | -3.76749 | 27185 ft | 442 kts | 152° |
| 2026-04-24 16:22 | 55.13979 | -3.74366 | 27682 ft | 441 kts | 152° |
| 2026-04-24 16:23 | 55.11235 | -3.71965 | 28144 ft | 441 kts | 152° |
| 2026-04-24 16:23 | 55.08517 | -3.69599 | 28575 ft | 441 kts | 152° |
| 2026-04-24 16:23 | 55.05793 | -3.67241 | 29006 ft | 441 kts | 152° |
| 2026-04-24 16:24 | 55.00311 | -3.62538 | 29884 ft | 440 kts | 152° |
| 2026-04-24 16:24 | 54.97586 | -3.60212 | 30306 ft | 440 kts | 152° |
| 2026-04-24 16:24 | 54.94826 | -3.57860 | 30736 ft | 439 kts | 152° |
| 2026-04-24 16:24 | 54.92088 | -3.55529 | 31135 ft | 440 kts | 152° |
| 2026-04-24 16:25 | 54.89353 | -3.53206 | 31529 ft | 440 kts | 152° |
| 2026-04-24 16:25 | 54.86596 | -3.50868 | 31881 ft | 441 kts | 153° |
| 2026-04-24 16:25 | 54.83857 | -3.48551 | 32167 ft | 443 kts | 153° |
| 2026-04-24 16:26 | 54.78283 | -3.43850 | 32710 ft | 447 kts | 153° |
| 2026-04-24 16:26 | 54.75500 | -3.41506 | 32970 ft | 449 kts | 153° |
| 2026-04-24 16:26 | 54.69874 | -3.36783 | 33229 ft | 453 kts | 153° |
| 2026-04-24 16:27 | 54.67029 | -3.34400 | 33234 ft | 454 kts | 154° |
| 2026-04-24 16:27 | 54.61339 | -3.29644 | 33231 ft | 454 kts | 154° |
| 2026-04-24 16:28 | 54.55690 | -3.24937 | 33236 ft | 454 kts | 154° |
| 2026-04-24 16:28 | 54.47166 | -3.17862 | 33230 ft | 454 kts | 154° |
| 2026-04-24 16:29 | 54.41485 | -3.13165 | 33234 ft | 455 kts | 154° |
| 2026-04-24 16:30 | 54.30062 | -3.03762 | 33235 ft | 457 kts | 154° |
| 2026-04-24 16:30 | 54.24342 | -2.99076 | 33233 ft | 458 kts | 154° |
| 2026-04-24 16:31 | 54.18640 | -2.94419 | 33238 ft | 458 kts | 154° |
| 2026-04-24 16:31 | 54.12818 | -2.90042 | 33237 ft | 458 kts | 156° |
| 2026-04-24 16:32 | 54.06990 | -2.85794 | 33238 ft | 458 kts | 156° |
| 2026-04-24 16:32 | 54.01112 | -2.81573 | 33237 ft | 459 kts | 158° |
| 2026-04-24 16:33 | 53.95063 | -2.78137 | 33242 ft | 460 kts | 162° |
| 2026-04-24 16:33 | 53.88982 | -2.74925 | 33247 ft | 460 kts | 162° |
| 2026-04-24 16:34 | 53.82847 | -2.71687 | 33253 ft | 460 kts | 163° |
| 2026-04-24 16:34 | 53.76739 | -2.68474 | 33254 ft | 460 kts | 163° |
| 2026-04-24 16:35 | 53.70659 | -2.65284 | 33255 ft | 461 kts | 163° |
| 2026-04-24 16:35 | 53.64524 | -2.62077 | 33256 ft | 461 kts | 163° |
| 2026-04-24 16:36 | 53.58403 | -2.58883 | 33256 ft | 462 kts | 163° |
| 2026-04-24 16:36 | 53.52285 | -2.55699 | 33257 ft | 462 kts | 163° |
| 2026-04-24 16:37 | 53.46153 | -2.52523 | 33261 ft | 461 kts | 163° |
| 2026-04-24 16:37 | 53.40020 | -2.49352 | 33259 ft | 461 kts | 164° |
| 2026-04-24 16:38 | 53.33911 | -2.46206 | 33260 ft | 462 kts | 164° |
| 2026-04-24 16:38 | 53.27768 | -2.43050 | 33260 ft | 462 kts | 164° |
| 2026-04-24 16:39 | 53.21657 | -2.39921 | 33264 ft | 462 kts | 164° |
| 2026-04-24 16:39 | 53.15522 | -2.36793 | 33259 ft | 462 kts | 164° |
| 2026-04-24 16:40 | 53.09365 | -2.33647 | 33258 ft | 461 kts | 165° |